sensor_id;sensor_type;location;lat;lon;timestamp;P1;durP1;ratioP1;P2;durP2;ratioP2
12703;SDS011;6416;52.182;7.650;2023-04-03T00:00:10;1.87;;;1.33;;
12703;SDS011;6416;52.182;7.650;2023-04-03T00:02:36;1.83;;;1.40;;
12703;SDS011;6416;52.182;7.650;2023-04-03T00:05:02;2.60;;;1.53;;
12703;SDS011;6416;52.182;7.650;2023-04-03T00:07:28;2.40;;;1.30;;
12703;SDS011;6416;52.182;7.650;2023-04-03T00:09:53;1.87;;;1.63;;
12703;SDS011;6416;52.182;7.650;2023-04-03T00:12:18;1.67;;;1.30;;
12703;SDS011;6416;52.182;7.650;2023-04-03T00:14:44;2.20;;;1.77;;
12703;SDS011;6416;52.182;7.650;2023-04-03T00:17:09;2.23;;;1.40;;
12703;SDS011;6416;52.182;7.650;2023-04-03T00:19:35;2.03;;;1.43;;
12703;SDS011;6416;52.182;7.650;2023-04-03T00:22:00;2.80;;;1.50;;
12703;SDS011;6416;52.182;7.650;2023-04-03T00:24:26;2.93;;;1.60;;
12703;SDS011;6416;52.182;7.650;2023-04-03T00:26:51;1.30;;;1.20;;
12703;SDS011;6416;52.182;7.650;2023-04-03T00:29:17;2.70;;;1.27;;
12703;SDS011;6416;52.182;7.650;2023-04-03T00:31:42;1.77;;;1.40;;
12703;SDS011;6416;52.182;7.650;2023-04-03T00:34:08;1.73;;;1.17;;
12703;SDS011;6416;52.182;7.650;2023-04-03T00:36:33;1.40;;;1.30;;
12703;SDS011;6416;52.182;7.650;2023-04-03T00:38:59;2.80;;;1.30;;
12703;SDS011;6416;52.182;7.650;2023-04-03T00:41:24;4.97;;;1.23;;
12703;SDS011;6416;52.182;7.650;2023-04-03T00:43:49;1.93;;;1.30;;
12703;SDS011;6416;52.182;7.650;2023-04-03T00:46:15;1.80;;;1.30;;
12703;SDS011;6416;52.182;7.650;2023-04-03T00:48:41;1.87;;;1.30;;
12703;SDS011;6416;52.182;7.650;2023-04-03T00:51:11;1.50;;;1.40;;
12703;SDS011;6416;52.182;7.650;2023-04-03T00:53:42;2.60;;;1.40;;
12703;SDS011;6416;52.182;7.650;2023-04-03T00:56:12;1.93;;;1.30;;
12703;SDS011;6416;52.182;7.650;2023-04-03T00:59:25;1.60;;;1.17;;
12703;SDS011;6416;52.182;7.650;2023-04-03T01:01:35;2.10;;;1.50;;
12703;SDS011;6416;52.182;7.650;2023-04-03T01:04:02;2.67;;;1.43;;
12703;SDS011;6416;52.182;7.650;2023-04-03T01:06:29;2.03;;;1.40;;
12703;SDS011;6416;52.182;7.650;2023-04-03T01:08:58;5.73;;;1.47;;
12703;SDS011;6416;52.182;7.650;2023-04-03T01:11:24;2.37;;;1.33;;
12703;SDS011;6416;52.182;7.650;2023-04-03T01:13:49;1.70;;;1.30;;
12703;SDS011;6416;52.182;7.650;2023-04-03T01:16:15;1.73;;;1.40;;
12703;SDS011;6416;52.182;7.650;2023-04-03T01:18:41;2.03;;;1.27;;
12703;SDS011;6416;52.182;7.650;2023-04-03T01:21:11;2.27;;;1.57;;
12703;SDS011;6416;52.182;7.650;2023-04-03T01:24:11;1.90;;;1.00;;
12703;SDS011;6416;52.182;7.650;2023-04-03T01:26:42;2.13;;;1.30;;
12703;SDS011;6416;52.182;7.650;2023-04-03T01:29:07;2.20;;;1.50;;
12703;SDS011;6416;52.182;7.650;2023-04-03T01:31:47;2.90;;;1.37;;
12703;SDS011;6416;52.182;7.650;2023-04-03T01:34:14;1.67;;;1.00;;
12703;SDS011;6416;52.182;7.650;2023-04-03T01:36:39;4.23;;;1.37;;
12703;SDS011;6416;52.182;7.650;2023-04-03T01:39:04;2.37;;;1.30;;
12703;SDS011;6416;52.182;7.650;2023-04-03T01:41:30;1.67;;;1.20;;
12703;SDS011;6416;52.182;7.650;2023-04-03T01:43:55;2.47;;;1.30;;
12703;SDS011;6416;52.182;7.650;2023-04-03T01:46:22;1.80;;;1.20;;
12703;SDS011;6416;52.182;7.650;2023-04-03T01:48:47;2.33;;;1.40;;
12703;SDS011;6416;52.182;7.650;2023-04-03T01:51:13;1.90;;;1.40;;
12703;SDS011;6416;52.182;7.650;2023-04-03T01:53:39;1.80;;;1.10;;
12703;SDS011;6416;52.182;7.650;2023-04-03T01:56:05;2.50;;;1.40;;
12703;SDS011;6416;52.182;7.650;2023-04-03T01:58:30;2.00;;;1.30;;
12703;SDS011;6416;52.182;7.650;2023-04-03T02:00:56;2.20;;;1.20;;
12703;SDS011;6416;52.182;7.650;2023-04-03T02:03:21;2.70;;;1.30;;
12703;SDS011;6416;52.182;7.650;2023-04-03T02:05:47;1.43;;;1.27;;
12703;SDS011;6416;52.182;7.650;2023-04-03T02:08:12;3.07;;;1.50;;
12703;SDS011;6416;52.182;7.650;2023-04-03T02:10:38;2.90;;;1.47;;
12703;SDS011;6416;52.182;7.650;2023-04-03T02:13:03;1.77;;;1.20;;
12703;SDS011;6416;52.182;7.650;2023-04-03T02:15:29;1.30;;;1.20;;
12703;SDS011;6416;52.182;7.650;2023-04-03T02:17:54;2.87;;;1.40;;
12703;SDS011;6416;52.182;7.650;2023-04-03T02:20:20;1.90;;;1.10;;
12703;SDS011;6416;52.182;7.650;2023-04-03T02:22:46;1.53;;;1.13;;
12703;SDS011;6416;52.182;7.650;2023-04-03T02:25:12;2.20;;;1.23;;
12703;SDS011;6416;52.182;7.650;2023-04-03T02:27:37;1.53;;;1.30;;
12703;SDS011;6416;52.182;7.650;2023-04-03T02:30:03;4.13;;;1.30;;
12703;SDS011;6416;52.182;7.650;2023-04-03T02:32:29;2.57;;;1.23;;
12703;SDS011;6416;52.182;7.650;2023-04-03T02:34:55;2.57;;;1.40;;
12703;SDS011;6416;52.182;7.650;2023-04-03T02:37:20;2.30;;;1.10;;
12703;SDS011;6416;52.182;7.650;2023-04-03T02:39:46;1.97;;;1.20;;
12703;SDS011;6416;52.182;7.650;2023-04-03T02:42:11;1.47;;;1.20;;
12703;SDS011;6416;52.182;7.650;2023-04-03T02:44:37;1.13;;;1.07;;
12703;SDS011;6416;52.182;7.650;2023-04-03T02:47:03;2.13;;;1.33;;
12703;SDS011;6416;52.182;7.650;2023-04-03T02:49:28;2.10;;;1.27;;
12703;SDS011;6416;52.182;7.650;2023-04-03T02:51:54;1.47;;;1.20;;
12703;SDS011;6416;52.182;7.650;2023-04-03T02:54:19;2.03;;;1.33;;
12703;SDS011;6416;52.182;7.650;2023-04-03T02:56:44;1.17;;;1.07;;
12703;SDS011;6416;52.182;7.650;2023-04-03T02:59:10;1.50;;;1.40;;
12703;SDS011;6416;52.182;7.650;2023-04-03T03:01:35;2.13;;;1.40;;
12703;SDS011;6416;52.182;7.650;2023-04-03T03:04:01;1.20;;;1.10;;
12703;SDS011;6416;52.182;7.650;2023-04-03T03:06:26;1.53;;;1.40;;
12703;SDS011;6416;52.182;7.650;2023-04-03T03:08:52;2.77;;;1.53;;
12703;SDS011;6416;52.182;7.650;2023-04-03T03:11:18;2.83;;;1.40;;
12703;SDS011;6416;52.182;7.650;2023-04-03T03:13:44;1.50;;;1.30;;
12703;SDS011;6416;52.182;7.650;2023-04-03T03:16:10;2.30;;;1.40;;
12703;SDS011;6416;52.182;7.650;2023-04-03T03:18:35;2.07;;;1.30;;
12703;SDS011;6416;52.182;7.650;2023-04-03T03:21:01;2.67;;;1.40;;
12703;SDS011;6416;52.182;7.650;2023-04-03T03:23:28;2.53;;;1.30;;
12703;SDS011;6416;52.182;7.650;2023-04-03T03:25:55;2.53;;;1.30;;
12703;SDS011;6416;52.182;7.650;2023-04-03T03:28:22;1.00;;;1.00;;
12703;SDS011;6416;52.182;7.650;2023-04-03T03:30:47;1.50;;;1.30;;
12703;SDS011;6416;52.182;7.650;2023-04-03T03:33:13;2.07;;;1.20;;
12703;SDS011;6416;52.182;7.650;2023-04-03T03:35:38;1.67;;;1.27;;
12703;SDS011;6416;52.182;7.650;2023-04-03T03:38:04;1.83;;;1.00;;
12703;SDS011;6416;52.182;7.650;2023-04-03T03:40:29;0.93;;;0.90;;
12703;SDS011;6416;52.182;7.650;2023-04-03T03:42:55;1.47;;;1.20;;
12703;SDS011;6416;52.182;7.650;2023-04-03T03:45:20;2.30;;;1.33;;
12703;SDS011;6416;52.182;7.650;2023-04-03T03:47:46;1.60;;;1.47;;
12703;SDS011;6416;52.182;7.650;2023-04-03T03:50:11;2.13;;;1.13;;
12703;SDS011;6416;52.182;7.650;2023-04-03T03:52:36;1.60;;;1.30;;
12703;SDS011;6416;52.182;7.650;2023-04-03T03:55:02;1.43;;;1.30;;
12703;SDS011;6416;52.182;7.650;2023-04-03T03:57:28;2.60;;;1.30;;
12703;SDS011;6416;52.182;7.650;2023-04-03T03:59:53;2.27;;;1.43;;
12703;SDS011;6416;52.182;7.650;2023-04-03T04:02:19;3.17;;;1.50;;
12703;SDS011;6416;52.182;7.650;2023-04-03T04:04:45;2.33;;;1.70;;
12703;SDS011;6416;52.182;7.650;2023-04-03T04:07:10;2.80;;;1.30;;
12703;SDS011;6416;52.182;7.650;2023-04-03T04:09:36;2.27;;;1.40;;
12703;SDS011;6416;52.182;7.650;2023-04-03T04:12:01;1.20;;;1.10;;
12703;SDS011;6416;52.182;7.650;2023-04-03T04:14:26;1.50;;;1.27;;
12703;SDS011;6416;52.182;7.650;2023-04-03T04:16:52;1.43;;;1.33;;
12703;SDS011;6416;52.182;7.650;2023-04-03T04:19:17;3.27;;;1.50;;
12703;SDS011;6416;52.182;7.650;2023-04-03T04:21:43;2.50;;;1.50;;
12703;SDS011;6416;52.182;7.650;2023-04-03T04:24:08;2.27;;;1.53;;
12703;SDS011;6416;52.182;7.650;2023-04-03T04:26:34;1.53;;;1.43;;
12703;SDS011;6416;52.182;7.650;2023-04-03T04:28:59;2.40;;;1.40;;
12703;SDS011;6416;52.182;7.650;2023-04-03T04:31:25;3.47;;;1.87;;
12703;SDS011;6416;52.182;7.650;2023-04-03T04:33:51;1.50;;;1.40;;
12703;SDS011;6416;52.182;7.650;2023-04-03T04:36:17;2.20;;;1.50;;
12703;SDS011;6416;52.182;7.650;2023-04-03T04:38:42;4.13;;;1.50;;
12703;SDS011;6416;52.182;7.650;2023-04-03T04:41:08;3.03;;;1.80;;
12703;SDS011;6416;52.182;7.650;2023-04-03T04:43:33;2.37;;;2.03;;
12703;SDS011;6416;52.182;7.650;2023-04-03T04:46:03;2.20;;;2.00;;
12703;SDS011;6416;52.182;7.650;2023-04-03T04:48:29;2.27;;;1.90;;
12703;SDS011;6416;52.182;7.650;2023-04-03T04:50:55;5.40;;;3.20;;
12703;SDS011;6416;52.182;7.650;2023-04-03T04:53:20;9.43;;;5.23;;
12703;SDS011;6416;52.182;7.650;2023-04-03T04:55:46;6.67;;;4.70;;
12703;SDS011;6416;52.182;7.650;2023-04-03T04:58:11;7.30;;;4.63;;
12703;SDS011;6416;52.182;7.650;2023-04-03T05:00:37;5.77;;;4.20;;
12703;SDS011;6416;52.182;7.650;2023-04-03T05:03:02;6.83;;;4.40;;
12703;SDS011;6416;52.182;7.650;2023-04-03T05:05:28;4.37;;;3.47;;
12703;SDS011;6416;52.182;7.650;2023-04-03T05:07:53;4.57;;;3.70;;
12703;SDS011;6416;52.182;7.650;2023-04-03T05:10:19;3.90;;;3.00;;
12703;SDS011;6416;52.182;7.650;2023-04-03T05:12:44;3.17;;;2.40;;
12703;SDS011;6416;52.182;7.650;2023-04-03T05:15:10;5.97;;;2.27;;
12703;SDS011;6416;52.182;7.650;2023-04-03T05:17:35;3.20;;;1.93;;
12703;SDS011;6416;52.182;7.650;2023-04-03T05:20:01;2.37;;;2.00;;
12703;SDS011;6416;52.182;7.650;2023-04-03T05:22:28;4.83;;;1.80;;
12703;SDS011;6416;52.182;7.650;2023-04-03T05:24:53;3.10;;;1.70;;
12703;SDS011;6416;52.182;7.650;2023-04-03T05:27:19;2.33;;;1.43;;
12703;SDS011;6416;52.182;7.650;2023-04-03T05:29:44;2.37;;;1.50;;
12703;SDS011;6416;52.182;7.650;2023-04-03T05:32:10;2.23;;;1.33;;
12703;SDS011;6416;52.182;7.650;2023-04-03T05:34:36;3.13;;;1.80;;
12703;SDS011;6416;52.182;7.650;2023-04-03T05:37:01;2.10;;;1.30;;
12703;SDS011;6416;52.182;7.650;2023-04-03T05:39:27;4.17;;;1.63;;
12703;SDS011;6416;52.182;7.650;2023-04-03T05:41:52;4.37;;;1.90;;
12703;SDS011;6416;52.182;7.650;2023-04-03T05:44:18;2.57;;;1.77;;
12703;SDS011;6416;52.182;7.650;2023-04-03T05:46:43;2.23;;;1.60;;
12703;SDS011;6416;52.182;7.650;2023-04-03T05:49:09;3.27;;;1.60;;
12703;SDS011;6416;52.182;7.650;2023-04-03T05:51:35;4.10;;;1.90;;
12703;SDS011;6416;52.182;7.650;2023-04-03T05:54:12;2.30;;;1.47;;
12703;SDS011;6416;52.182;7.650;2023-04-03T05:56:39;3.27;;;1.40;;
12703;SDS011;6416;52.182;7.650;2023-04-03T05:59:04;3.50;;;2.03;;
12703;SDS011;6416;52.182;7.650;2023-04-03T06:01:30;2.37;;;1.50;;
12703;SDS011;6416;52.182;7.650;2023-04-03T06:03:55;3.37;;;1.83;;
12703;SDS011;6416;52.182;7.650;2023-04-03T06:06:21;1.53;;;1.37;;
12703;SDS011;6416;52.182;7.650;2023-04-03T06:08:46;2.17;;;1.67;;
12703;SDS011;6416;52.182;7.650;2023-04-03T06:11:12;2.47;;;1.40;;
12703;SDS011;6416;52.182;7.650;2023-04-03T06:13:37;3.30;;;1.40;;
12703;SDS011;6416;52.182;7.650;2023-04-03T06:16:03;2.20;;;1.40;;
12703;SDS011;6416;52.182;7.650;2023-04-03T06:18:29;4.27;;;1.40;;
12703;SDS011;6416;52.182;7.650;2023-04-03T06:20:54;2.07;;;1.20;;
12703;SDS011;6416;52.182;7.650;2023-04-03T06:23:20;2.20;;;1.60;;
12703;SDS011;6416;52.182;7.650;2023-04-03T06:25:45;1.50;;;1.20;;
12703;SDS011;6416;52.182;7.650;2023-04-03T06:28:11;2.57;;;1.30;;
12703;SDS011;6416;52.182;7.650;2023-04-03T06:30:36;1.57;;;1.20;;
12703;SDS011;6416;52.182;7.650;2023-04-03T06:33:02;2.13;;;1.20;;
12703;SDS011;6416;52.182;7.650;2023-04-03T06:35:28;3.10;;;1.40;;
12703;SDS011;6416;52.182;7.650;2023-04-03T06:37:53;2.70;;;1.40;;
12703;SDS011;6416;52.182;7.650;2023-04-03T06:40:20;2.40;;;1.40;;
12703;SDS011;6416;52.182;7.650;2023-04-03T06:42:48;3.80;;;1.63;;
12703;SDS011;6416;52.182;7.650;2023-04-03T06:45:14;4.80;;;1.50;;
12703;SDS011;6416;52.182;7.650;2023-04-03T06:47:39;1.53;;;1.20;;
12703;SDS011;6416;52.182;7.650;2023-04-03T06:50:05;2.97;;;1.50;;
12703;SDS011;6416;52.182;7.650;2023-04-03T06:52:31;4.43;;;1.53;;
12703;SDS011;6416;52.182;7.650;2023-04-03T06:54:56;3.90;;;1.60;;
12703;SDS011;6416;52.182;7.650;2023-04-03T06:57:21;3.53;;;1.93;;
12703;SDS011;6416;52.182;7.650;2023-04-03T06:59:47;3.23;;;1.30;;
12703;SDS011;6416;52.182;7.650;2023-04-03T07:02:13;1.90;;;1.30;;
12703;SDS011;6416;52.182;7.650;2023-04-03T07:04:38;3.67;;;1.30;;
12703;SDS011;6416;52.182;7.650;2023-04-03T07:07:03;3.53;;;1.37;;
12703;SDS011;6416;52.182;7.650;2023-04-03T07:09:29;5.17;;;1.53;;
12703;SDS011;6416;52.182;7.650;2023-04-03T07:11:54;2.63;;;1.37;;
12703;SDS011;6416;52.182;7.650;2023-04-03T07:14:20;4.13;;;1.63;;
12703;SDS011;6416;52.182;7.650;2023-04-03T07:16:45;3.67;;;2.07;;
12703;SDS011;6416;52.182;7.650;2023-04-03T07:19:11;2.40;;;1.50;;
12703;SDS011;6416;52.182;7.650;2023-04-03T07:21:36;3.73;;;1.80;;
12703;SDS011;6416;52.182;7.650;2023-04-03T07:24:02;2.10;;;1.50;;
12703;SDS011;6416;52.182;7.650;2023-04-03T07:26:27;2.77;;;1.60;;
12703;SDS011;6416;52.182;7.650;2023-04-03T07:28:53;3.07;;;1.50;;
12703;SDS011;6416;52.182;7.650;2023-04-03T07:31:18;1.77;;;1.37;;
12703;SDS011;6416;52.182;7.650;2023-04-03T07:33:44;3.37;;;1.70;;
12703;SDS011;6416;52.182;7.650;2023-04-03T07:36:10;3.23;;;1.90;;
12703;SDS011;6416;52.182;7.650;2023-04-03T07:38:40;4.27;;;1.80;;
12703;SDS011;6416;52.182;7.650;2023-04-03T07:41:05;3.70;;;1.83;;
12703;SDS011;6416;52.182;7.650;2023-04-03T07:43:31;2.73;;;1.30;;
12703;SDS011;6416;52.182;7.650;2023-04-03T07:45:57;2.37;;;1.40;;
12703;SDS011;6416;52.182;7.650;2023-04-03T07:48:26;4.37;;;1.50;;
12703;SDS011;6416;52.182;7.650;2023-04-03T07:50:51;3.13;;;1.52;;
12703;SDS011;6416;52.182;7.650;2023-04-03T07:53:17;2.65;;;1.20;;
12703;SDS011;6416;52.182;7.650;2023-04-03T07:55:46;1.92;;;1.30;;
12703;SDS011;6416;52.182;7.650;2023-04-03T07:58:13;1.50;;;1.27;;
12703;SDS011;6416;52.182;7.650;2023-04-03T08:00:40;2.08;;;1.35;;
12703;SDS011;6416;52.182;7.650;2023-04-03T08:03:06;2.03;;;1.50;;
12703;SDS011;6416;52.182;7.650;2023-04-03T08:05:35;2.15;;;1.38;;
12703;SDS011;6416;52.182;7.650;2023-04-03T08:08:02;4.65;;;1.48;;
12703;SDS011;6416;52.182;7.650;2023-04-03T08:10:29;1.90;;;1.30;;
12703;SDS011;6416;52.182;7.650;2023-04-03T08:12:55;2.55;;;1.23;;
12703;SDS011;6416;52.182;7.650;2023-04-03T08:15:20;5.65;;;1.42;;
12703;SDS011;6416;52.182;7.650;2023-04-03T08:17:46;5.35;;;1.30;;
12703;SDS011;6416;52.182;7.650;2023-04-03T08:20:11;3.40;;;1.20;;
12703;SDS011;6416;52.182;7.650;2023-04-03T08:22:37;2.13;;;1.23;;
12703;SDS011;6416;52.182;7.650;2023-04-03T08:25:02;3.15;;;1.00;;
12703;SDS011;6416;52.182;7.650;2023-04-03T08:27:28;1.58;;;1.00;;
12703;SDS011;6416;52.182;7.650;2023-04-03T08:29:54;3.58;;;1.00;;
12703;SDS011;6416;52.182;7.650;2023-04-03T08:32:20;2.83;;;1.25;;
12703;SDS011;6416;52.182;7.650;2023-04-03T08:34:46;3.78;;;1.05;;
12703;SDS011;6416;52.182;7.650;2023-04-03T08:37:11;5.68;;;1.35;;
12703;SDS011;6416;52.182;7.650;2023-04-03T08:39:37;10.63;;;2.38;;
12703;SDS011;6416;52.182;7.650;2023-04-03T08:42:05;1.85;;;1.17;;
12703;SDS011;6416;52.182;7.650;2023-04-03T08:48:27;1.77;;;1.02;;
12703;SDS011;6416;52.182;7.650;2023-04-03T08:50:55;2.30;;;0.90;;
12703;SDS011;6416;52.182;7.650;2023-04-03T08:53:28;1.95;;;0.93;;
12703;SDS011;6416;52.182;7.650;2023-04-03T08:55:57;2.40;;;1.27;;
12703;SDS011;6416;52.182;7.650;2023-04-03T08:58:28;6.90;;;1.50;;
12703;SDS011;6416;52.182;7.650;2023-04-03T09:01:00;1.75;;;1.00;;
12703;SDS011;6416;52.182;7.650;2023-04-03T09:03:33;1.88;;;1.13;;
12703;SDS011;6416;52.182;7.650;2023-04-03T09:06:03;1.38;;;0.85;;
12703;SDS011;6416;52.182;7.650;2023-04-03T09:08:36;7.38;;;1.00;;
12703;SDS011;6416;52.182;7.650;2023-04-03T09:21:50;2.17;;;0.93;;
12703;SDS011;6416;52.182;7.650;2023-04-03T09:24:16;5.30;;;0.90;;
12703;SDS011;6416;52.182;7.650;2023-04-03T09:27:16;1.73;;;1.00;;
12703;SDS011;6416;52.182;7.650;2023-04-03T09:29:36;1.25;;;0.75;;
12703;SDS011;6416;52.182;7.650;2023-04-03T09:32:15;3.85;;;0.90;;
12703;SDS011;6416;52.182;7.650;2023-04-03T09:34:45;1.40;;;0.88;;
12703;SDS011;6416;52.182;7.650;2023-04-03T09:37:12;3.05;;;0.60;;
12703;SDS011;6416;52.182;7.650;2023-04-03T09:40:00;4.30;;;1.02;;
12703;SDS011;6416;52.182;7.650;2023-04-03T09:42:25;2.60;;;1.00;;
12703;SDS011;6416;52.182;7.650;2023-04-03T09:44:55;3.67;;;0.90;;
12703;SDS011;6416;52.182;7.650;2023-04-03T09:47:34;3.17;;;1.20;;
12703;SDS011;6416;52.182;7.650;2023-04-03T09:50:19;3.28;;;0.90;;
12703;SDS011;6416;52.182;7.650;2023-04-03T09:52:47;3.88;;;1.15;;
12703;SDS011;6416;52.182;7.650;2023-04-03T09:55:14;7.32;;;1.40;;
12703;SDS011;6416;52.182;7.650;2023-04-03T09:57:42;2.53;;;1.00;;
12703;SDS011;6416;52.182;7.650;2023-04-03T10:02:49;1.95;;;0.85;;
12703;SDS011;6416;52.182;7.650;2023-04-03T10:10:39;1.80;;;0.77;;
12703;SDS011;6416;52.182;7.650;2023-04-03T10:13:17;1.65;;;1.00;;
12703;SDS011;6416;52.182;7.650;2023-04-03T10:15:45;1.02;;;0.80;;
12703;SDS011;6416;52.182;7.650;2023-04-03T10:24:01;1.48;;;1.00;;
12703;SDS011;6416;52.182;7.650;2023-04-03T10:30:27;4.13;;;0.80;;
12703;SDS011;6416;52.182;7.650;2023-04-03T10:39:14;5.22;;;0.98;;
12703;SDS011;6416;52.182;7.650;2023-04-03T10:47:20;2.45;;;0.80;;
12703;SDS011;6416;52.182;7.650;2023-04-03T10:53:08;9.88;;;1.95;;
12703;SDS011;6416;52.182;7.650;2023-04-03T10:58:33;2.03;;;1.15;;
12703;SDS011;6416;52.182;7.650;2023-04-03T11:01:14;1.90;;;1.00;;
12703;SDS011;6416;52.182;7.650;2023-04-03T11:03:49;1.92;;;1.08;;
12703;SDS011;6416;52.182;7.650;2023-04-03T11:06:18;1.95;;;0.70;;
12703;SDS011;6416;52.182;7.650;2023-04-03T11:11:35;2.08;;;0.90;;
12703;SDS011;6416;52.182;7.650;2023-04-03T11:22:30;2.30;;;0.98;;
12703;SDS011;6416;52.182;7.650;2023-04-03T11:27:30;2.05;;;0.95;;
12703;SDS011;6416;52.182;7.650;2023-04-03T11:30:19;3.80;;;1.10;;
12703;SDS011;6416;52.182;7.650;2023-04-03T11:35:45;1.83;;;0.90;;
12703;SDS011;6416;52.182;7.650;2023-04-03T11:38:38;5.93;;;2.50;;
12703;SDS011;6416;52.182;7.650;2023-04-03T11:41:07;2.63;;;1.38;;
12703;SDS011;6416;52.182;7.650;2023-04-03T11:43:36;0.95;;;0.70;;
12703;SDS011;6416;52.182;7.650;2023-04-03T11:46:06;2.20;;;0.80;;
12703;SDS011;6416;52.182;7.650;2023-04-03T11:53:40;2.15;;;1.05;;
12703;SDS011;6416;52.182;7.650;2023-04-03T12:01:43;4.32;;;1.23;;
12703;SDS011;6416;52.182;7.650;2023-04-03T12:04:12;4.95;;;1.20;;
12703;SDS011;6416;52.182;7.650;2023-04-03T12:09:11;1.83;;;1.05;;
12703;SDS011;6416;52.182;7.650;2023-04-03T12:11:51;1.92;;;0.95;;
12703;SDS011;6416;52.182;7.650;2023-04-03T12:14:17;2.50;;;1.65;;
12703;SDS011;6416;52.182;7.650;2023-04-03T12:16:44;3.20;;;1.10;;
12703;SDS011;6416;52.182;7.650;2023-04-03T12:29:45;2.33;;;1.10;;
12703;SDS011;6416;52.182;7.650;2023-04-03T12:32:32;2.65;;;1.10;;
12703;SDS011;6416;52.182;7.650;2023-04-03T12:40:52;2.10;;;1.15;;
12703;SDS011;6416;52.182;7.650;2023-04-03T12:46:09;1.92;;;1.20;;
12703;SDS011;6416;52.182;7.650;2023-04-03T12:51:13;2.17;;;1.27;;
12703;SDS011;6416;52.182;7.650;2023-04-03T12:53:57;1.42;;;1.05;;
12703;SDS011;6416;52.182;7.650;2023-04-03T12:56:29;2.97;;;0.90;;
12703;SDS011;6416;52.182;7.650;2023-04-03T12:59:13;1.90;;;1.15;;
12703;SDS011;6416;52.182;7.650;2023-04-03T13:01:54;3.60;;;1.20;;
12703;SDS011;6416;52.182;7.650;2023-04-03T13:04:20;3.80;;;1.77;;
12703;SDS011;6416;52.182;7.650;2023-04-03T13:06:47;2.60;;;1.08;;
12703;SDS011;6416;52.182;7.650;2023-04-03T13:09:20;7.78;;;2.67;;
12703;SDS011;6416;52.182;7.650;2023-04-03T13:11:47;2.95;;;2.08;;
12703;SDS011;6416;52.182;7.650;2023-04-03T13:14:20;4.03;;;1.60;;
12703;SDS011;6416;52.182;7.650;2023-04-03T13:16:56;3.28;;;1.63;;
12703;SDS011;6416;52.182;7.650;2023-04-03T13:19:24;2.30;;;1.10;;
12703;SDS011;6416;52.182;7.650;2023-04-03T13:21:54;5.60;;;1.35;;
12703;SDS011;6416;52.182;7.650;2023-04-03T13:24:35;3.05;;;1.60;;
12703;SDS011;6416;52.182;7.650;2023-04-03T13:27:03;2.45;;;1.23;;
12703;SDS011;6416;52.182;7.650;2023-04-03T13:29:32;2.15;;;1.05;;
12703;SDS011;6416;52.182;7.650;2023-04-03T13:32:00;1.40;;;0.80;;
12703;SDS011;6416;52.182;7.650;2023-04-03T13:34:29;2.10;;;1.00;;
12703;SDS011;6416;52.182;7.650;2023-04-03T13:37:02;2.20;;;1.00;;
12703;SDS011;6416;52.182;7.650;2023-04-03T13:39:29;1.35;;;0.90;;
12703;SDS011;6416;52.182;7.650;2023-04-03T13:41:58;1.13;;;0.98;;
12703;SDS011;6416;52.182;7.650;2023-04-03T13:44:27;2.45;;;1.23;;
12703;SDS011;6416;52.182;7.650;2023-04-03T13:49:37;1.95;;;1.00;;
12703;SDS011;6416;52.182;7.650;2023-04-03T13:52:27;6.60;;;1.45;;
12703;SDS011;6416;52.182;7.650;2023-04-03T13:55:29;2.38;;;1.30;;
12703;SDS011;6416;52.182;7.650;2023-04-03T13:57:58;1.98;;;1.10;;
12703;SDS011;6416;52.182;7.650;2023-04-03T14:00:36;1.75;;;1.13;;
12703;SDS011;6416;52.182;7.650;2023-04-03T14:03:16;1.70;;;1.10;;
12703;SDS011;6416;52.182;7.650;2023-04-03T14:05:53;1.93;;;1.00;;
12703;SDS011;6416;52.182;7.650;2023-04-03T14:08:19;1.07;;;0.83;;
12703;SDS011;6416;52.182;7.650;2023-04-03T14:10:45;1.60;;;1.08;;
12703;SDS011;6416;52.182;7.650;2023-04-03T14:13:12;4.07;;;1.40;;
12703;SDS011;6416;52.182;7.650;2023-04-03T14:15:39;2.40;;;1.20;;
12703;SDS011;6416;52.182;7.650;2023-04-03T14:18:05;2.93;;;1.30;;
12703;SDS011;6416;52.182;7.650;2023-04-03T14:20:30;1.90;;;1.20;;
12703;SDS011;6416;52.182;7.650;2023-04-03T14:22:56;2.80;;;1.67;;
12703;SDS011;6416;52.182;7.650;2023-04-03T14:25:22;2.17;;;1.20;;
12703;SDS011;6416;52.182;7.650;2023-04-03T14:27:48;2.83;;;1.50;;
12703;SDS011;6416;52.182;7.650;2023-04-03T14:30:18;5.27;;;1.20;;
12703;SDS011;6416;52.182;7.650;2023-04-03T14:32:49;2.93;;;1.30;;
12703;SDS011;6416;52.182;7.650;2023-04-03T14:35:15;3.37;;;1.40;;
12703;SDS011;6416;52.182;7.650;2023-04-03T14:37:41;2.83;;;1.30;;
12703;SDS011;6416;52.182;7.650;2023-04-03T14:40:07;3.60;;;1.37;;
12703;SDS011;6416;52.182;7.650;2023-04-03T14:42:37;2.13;;;1.30;;
12703;SDS011;6416;52.182;7.650;2023-04-03T14:45:08;1.83;;;1.40;;
12703;SDS011;6416;52.182;7.650;2023-04-03T14:47:36;3.57;;;1.20;;
12703;SDS011;6416;52.182;7.650;2023-04-03T14:50:11;3.17;;;1.40;;
12703;SDS011;6416;52.182;7.650;2023-04-03T14:52:39;4.30;;;1.50;;
12703;SDS011;6416;52.182;7.650;2023-04-03T14:55:05;1.23;;;1.10;;
12703;SDS011;6416;52.182;7.650;2023-04-03T14:57:31;1.27;;;0.87;;
12703;SDS011;6416;52.182;7.650;2023-04-03T14:59:58;1.63;;;1.03;;
12703;SDS011;6416;52.182;7.650;2023-04-03T15:02:28;1.50;;;0.97;;
12703;SDS011;6416;52.182;7.650;2023-04-03T15:04:58;2.67;;;1.20;;
12703;SDS011;6416;52.182;7.650;2023-04-03T15:07:26;2.23;;;1.10;;
12703;SDS011;6416;52.182;7.650;2023-04-03T15:09:53;1.10;;;0.93;;
12703;SDS011;6416;52.182;7.650;2023-04-03T15:12:19;1.30;;;1.13;;
12703;SDS011;6416;52.182;7.650;2023-04-03T15:14:44;1.67;;;1.00;;
12703;SDS011;6416;52.182;7.650;2023-04-03T15:17:15;3.03;;;1.60;;
12703;SDS011;6416;52.182;7.650;2023-04-03T15:19:46;2.57;;;1.50;;
12703;SDS011;6416;52.182;7.650;2023-04-03T15:22:15;1.67;;;1.30;;
12703;SDS011;6416;52.182;7.650;2023-04-03T15:24:42;1.60;;;1.10;;
12703;SDS011;6416;52.182;7.650;2023-04-03T15:27:09;1.80;;;1.40;;
12703;SDS011;6416;52.182;7.650;2023-04-03T15:29:35;1.93;;;1.10;;
12703;SDS011;6416;52.182;7.650;2023-04-03T15:32:01;3.47;;;1.63;;
12703;SDS011;6416;52.182;7.650;2023-04-03T15:34:27;1.93;;;1.20;;
12703;SDS011;6416;52.182;7.650;2023-04-03T15:36:53;1.30;;;1.00;;
12703;SDS011;6416;52.182;7.650;2023-04-03T15:39:18;4.83;;;1.10;;
12703;SDS011;6416;52.182;7.650;2023-04-03T15:41:44;1.77;;;1.20;;
12703;SDS011;6416;52.182;7.650;2023-04-03T15:44:10;1.20;;;1.10;;
12703;SDS011;6416;52.182;7.650;2023-04-03T15:46:35;1.73;;;1.00;;
12703;SDS011;6416;52.182;7.650;2023-04-03T15:49:01;1.80;;;1.00;;
12703;SDS011;6416;52.182;7.650;2023-04-03T15:51:26;2.90;;;1.30;;
12703;SDS011;6416;52.182;7.650;2023-04-03T15:53:52;2.13;;;1.40;;
12703;SDS011;6416;52.182;7.650;2023-04-03T15:56:17;3.63;;;1.50;;
12703;SDS011;6416;52.182;7.650;2023-04-03T15:58:43;2.10;;;1.27;;
12703;SDS011;6416;52.182;7.650;2023-04-03T16:01:09;1.93;;;1.20;;
12703;SDS011;6416;52.182;7.650;2023-04-03T16:03:35;1.60;;;1.03;;
12703;SDS011;6416;52.182;7.650;2023-04-03T16:06:01;1.17;;;1.07;;
12703;SDS011;6416;52.182;7.650;2023-04-03T16:08:26;2.87;;;1.10;;
12703;SDS011;6416;52.182;7.650;2023-04-03T16:10:52;1.40;;;1.00;;
12703;SDS011;6416;52.182;7.650;2023-04-03T16:13:17;1.93;;;1.10;;
12703;SDS011;6416;52.182;7.650;2023-04-03T16:15:43;2.20;;;1.10;;
12703;SDS011;6416;52.182;7.650;2023-04-03T16:18:08;2.03;;;1.20;;
12703;SDS011;6416;52.182;7.650;2023-04-03T16:20:34;1.80;;;1.10;;
12703;SDS011;6416;52.182;7.650;2023-04-03T16:23:00;1.40;;;1.10;;
12703;SDS011;6416;52.182;7.650;2023-04-03T16:25:26;2.07;;;1.10;;
12703;SDS011;6416;52.182;7.650;2023-04-03T16:27:52;1.63;;;1.10;;
12703;SDS011;6416;52.182;7.650;2023-04-03T16:30:18;2.60;;;1.03;;
12703;SDS011;6416;52.182;7.650;2023-04-03T16:32:43;1.43;;;0.90;;
12703;SDS011;6416;52.182;7.650;2023-04-03T16:35:09;1.90;;;0.93;;
12703;SDS011;6416;52.182;7.650;2023-04-03T16:37:35;1.63;;;0.80;;
12703;SDS011;6416;52.182;7.650;2023-04-03T16:40:01;1.50;;;0.90;;
12703;SDS011;6416;52.182;7.650;2023-04-03T16:42:28;1.03;;;0.93;;
12703;SDS011;6416;52.182;7.650;2023-04-03T16:44:54;1.20;;;1.00;;
12703;SDS011;6416;52.182;7.650;2023-04-03T16:47:19;2.67;;;1.10;;